createdAt,value
2022-10-17T00:02:00.125Z,14.32
2022-10-17T00:05:05.137Z,14.63
2022-10-17T00:08:08.436Z,14.50
2022-10-17T00:11:17.163Z,14.66
2022-10-17T00:14:20.351Z,14.59
2022-10-17T00:17:23.597Z,14.54
2022-10-17T00:20:30.427Z,14.49
2022-10-17T00:23:34.713Z,14.56
2022-10-17T00:26:37.929Z,14.46
2022-10-17T00:29:41.370Z,14.29
2022-10-17T00:32:44.727Z,14.00
2022-10-17T00:35:49.319Z,13.97
2022-10-17T00:38:54.162Z,13.91
2022-10-17T00:41:57.383Z,13.92
2022-10-17T00:45:06.559Z,14.13
2022-10-17T00:48:12.464Z,13.93
2022-10-17T00:51:17.977Z,14.02
2022-10-17T00:54:25.561Z,13.92
2022-10-17T00:57:31.256Z,13.86
2022-10-17T01:00:34.711Z,13.96
2022-10-17T01:03:38.105Z,13.88
2022-10-17T01:06:42.724Z,13.77
2022-10-17T01:09:48.262Z,13.84
2022-10-17T01:13:05.690Z,13.83
2022-10-17T01:16:18.164Z,13.56
2022-10-17T01:19:44.489Z,13.55
2022-10-17T01:22:56.663Z,13.85
2022-10-17T01:26:15.054Z,13.85
2022-10-17T01:29:38.840Z,14.05
2022-10-17T01:32:49.043Z,14.08
2022-10-17T01:36:01.707Z,13.88
2022-10-17T01:39:17.188Z,13.81
2022-10-17T01:42:27.003Z,13.38
2022-10-17T01:45:34.996Z,13.52
2022-10-17T01:48:45.239Z,13.79
2022-10-17T01:51:54.034Z,13.64
2022-10-17T01:55:02.867Z,13.74
2022-10-17T01:58:10.409Z,13.83
2022-10-17T02:01:14.622Z,13.82
2022-10-17T02:04:19.588Z,13.68
2022-10-17T02:07:22.808Z,13.57
2022-10-17T02:10:37.726Z,13.50
2022-10-17T02:13:55.732Z,13.71
2022-10-17T02:17:08.301Z,13.47
2022-10-17T02:20:21.590Z,13.39
2022-10-17T02:23:33.735Z,13.60
2022-10-17T02:26:42.929Z,13.59
2022-10-17T02:29:50.173Z,13.53
2022-10-17T02:33:00.989Z,13.49
2022-10-17T02:36:23.612Z,13.31
2022-10-17T02:39:30.065Z,12.79
2022-10-17T02:42:34.067Z,12.80
2022-10-17T02:45:41.664Z,12.32
2022-10-17T02:48:51.511Z,12.66
2022-10-17T02:52:03.006Z,12.80
2022-10-17T02:55:13.472Z,12.99
2022-10-17T02:58:22.600Z,13.08
2022-10-17T03:01:26.679Z,13.13
2022-10-17T03:04:29.943Z,13.21
2022-10-17T03:07:34.589Z,13.26
2022-10-17T03:10:37.769Z,13.04
2022-10-17T03:13:42.743Z,12.71
2022-10-17T03:16:46.684Z,12.14
2022-10-17T03:19:52.251Z,12.66
2022-10-17T03:22:57.134Z,12.95
2022-10-17T03:26:03.954Z,12.60
2022-10-17T03:29:07.641Z,12.77
2022-10-17T03:32:12.299Z,13.05
2022-10-17T03:35:16.103Z,12.97
2022-10-17T03:38:24.927Z,12.89
2022-10-17T03:41:28.643Z,12.64
2022-10-17T03:44:31.956Z,12.79
2022-10-17T03:47:36.163Z,12.71
2022-10-17T03:50:39.713Z,12.51
2022-10-17T03:53:45.952Z,12.50
2022-10-17T03:56:49.910Z,12.44
2022-10-17T03:59:55.668Z,11.74
2022-10-17T04:02:59.659Z,11.88
2022-10-17T04:06:05.134Z,11.82
2022-10-17T04:09:12.688Z,11.60
2022-10-17T04:12:28.776Z,12.02
2022-10-17T04:15:32.783Z,11.84
2022-10-17T04:18:36.293Z,12.12
2022-10-17T04:21:39.723Z,12.10
2022-10-17T04:24:45.989Z,11.97
2022-10-17T04:28:10.320Z,12.21
2022-10-17T04:31:16.353Z,12.28
2022-10-17T04:34:40.677Z,12.32
2022-10-17T04:37:44.101Z,12.26
2022-10-17T04:40:54.892Z,12.37
2022-10-17T04:43:58.271Z,12.40
2022-10-17T04:47:03.382Z,11.95
2022-10-17T04:50:07.644Z,11.73
2022-10-17T04:53:12.324Z,11.50
2022-10-17T04:56:18.899Z,11.43
2022-10-17T04:59:22.622Z,11.47
2022-10-17T05:02:33.733Z,11.72
2022-10-17T05:05:40.052Z,11.73
2022-10-17T05:08:44.087Z,11.73
2022-10-17T05:11:49.149Z,11.84
2022-10-17T05:14:52.530Z,11.94
2022-10-17T05:17:57.231Z,12.12
2022-10-17T05:21:04.556Z,12.29
2022-10-17T05:24:09.760Z,12.21
2022-10-17T05:27:16.282Z,12.42
2022-10-17T05:30:19.834Z,12.53
2022-10-17T05:33:25.839Z,12.64
2022-10-17T05:36:29.987Z,12.96
2022-10-17T05:39:35.070Z,12.84
2022-10-17T05:42:41.320Z,12.98
2022-10-17T05:45:45.664Z,13.36
2022-10-17T05:48:55.749Z,13.46
2022-10-17T05:51:59.227Z,13.61
2022-10-17T05:55:02.639Z,13.87
2022-10-17T05:58:07.581Z,14.17
2022-10-17T06:01:15.789Z,14.61
2022-10-17T06:04:19.319Z,15.13
2022-10-17T06:07:22.783Z,15.28
2022-10-17T06:10:26.324Z,15.55
2022-10-17T06:13:32.664Z,15.78
2022-10-17T06:16:38.215Z,15.89
2022-10-17T06:19:42.245Z,16.20
2022-10-17T06:22:45.574Z,16.62
2022-10-17T06:25:54.695Z,16.37
2022-10-17T06:28:59.600Z,16.82
2022-10-17T06:32:09.880Z,16.84
2022-10-17T06:35:18.289Z,17.04
2022-10-17T06:38:21.791Z,17.30
2022-10-17T06:41:27.560Z,17.76
2022-10-17T06:44:32.825Z,17.62
2022-10-17T06:47:54.495Z,17.99
2022-10-17T06:51:17.079Z,18.08
2022-10-17T06:54:30.851Z,18.08
2022-10-17T06:57:43.164Z,18.11
2022-10-17T07:01:20.588Z,17.78
2022-10-17T07:04:25.866Z,18.06
2022-10-17T07:07:32.187Z,18.21
2022-10-17T07:10:38.468Z,18.54
2022-10-17T07:13:44.059Z,18.78
2022-10-17T07:16:48.850Z,18.84
2022-10-17T07:19:58.453Z,19.09
2022-10-17T07:23:02.357Z,19.11
2022-10-17T07:26:08.661Z,19.29
2022-10-17T07:29:13.900Z,19.61
2022-10-17T07:32:26.892Z,19.89
2022-10-17T07:35:30.172Z,19.98
2022-10-17T07:38:33.763Z,20.18
2022-10-17T07:41:36.987Z,20.29
2022-10-17T07:44:41.328Z,20.31
2022-10-17T07:47:47.761Z,20.10
2022-10-17T07:50:52.814Z,20.12
2022-10-17T07:53:56.562Z,20.20
2022-10-17T07:56:59.922Z,20.69
2022-10-17T08:00:03.395Z,20.65
2022-10-17T08:03:17.141Z,20.64
2022-10-17T08:06:20.438Z,21.05
2022-10-17T08:09:23.872Z,20.55
2022-10-17T08:12:27.625Z,20.77
2022-10-17T08:15:32.141Z,20.73
2022-10-17T08:18:37.363Z,20.91
2022-10-17T08:21:41.634Z,21.25
2022-10-17T08:24:46.340Z,21.32
2022-10-17T08:27:49.828Z,21.46
2022-10-17T08:30:53.088Z,21.68
2022-10-17T08:33:57.707Z,21.75
2022-10-17T08:37:00.929Z,21.73
2022-10-17T08:40:04.733Z,22.09
2022-10-17T08:43:23.399Z,22.20
2022-10-17T08:46:32.629Z,22.51
2022-10-17T08:49:47.269Z,22.58
2022-10-17T08:52:53.814Z,22.09
2022-10-17T08:55:57.689Z,22.09
2022-10-17T08:59:00.973Z,21.93
2022-10-17T09:02:22.187Z,21.39
2022-10-17T09:05:36.142Z,22.19
2022-10-17T09:08:48.320Z,22.71
2022-10-17T09:12:04.275Z,23.10
2022-10-17T09:15:42.918Z,23.37
2022-10-17T09:18:54.288Z,23.55
2022-10-17T09:22:02.754Z,23.54
2022-10-17T09:25:11.933Z,23.93
2022-10-17T09:28:21.301Z,23.56
2022-10-17T09:31:27.699Z,23.81
2022-10-17T09:34:33.488Z,23.69
2022-10-17T09:37:39.197Z,23.57
2022-10-17T09:40:42.645Z,23.50
2022-10-17T09:43:47.821Z,24.13
2022-10-17T09:47:29.121Z,23.74
2022-10-17T09:50:35.504Z,23.92
2022-10-17T09:53:42.464Z,23.85
2022-10-17T09:57:00.945Z,24.08
2022-10-17T10:00:08.172Z,23.71
2022-10-17T10:03:22.673Z,23.86
2022-10-17T10:06:25.865Z,24.30
2022-10-17T10:09:34.854Z,23.63
2022-10-17T10:12:40.985Z,23.29
2022-10-17T10:15:46.046Z,23.91
2022-10-17T10:18:51.121Z,23.23
2022-10-17T10:21:57.401Z,23.59
2022-10-17T10:25:16.569Z,24.35
2022-10-17T10:28:20.117Z,24.45
2022-10-17T10:31:35.543Z,24.12
2022-10-17T10:34:42.423Z,24.53
2022-10-17T10:37:48.920Z,24.77
2022-10-17T10:40:56.636Z,24.80
2022-10-17T10:43:59.938Z,24.71
2022-10-17T10:47:26.264Z,24.92
2022-10-17T10:50:34.752Z,24.73
2022-10-17T10:53:45.618Z,24.89
2022-10-17T10:56:53.683Z,24.49
2022-10-17T11:00:02.018Z,24.48
2022-10-17T11:03:13.208Z,24.30
2022-10-17T11:06:23.177Z,24.87
2022-10-17T11:09:35.181Z,25.31
2022-10-17T11:15:58.927Z,24.55
2022-10-17T11:19:13.716Z,24.60
2022-10-17T11:22:22.059Z,24.82
2022-10-17T11:25:35.543Z,24.83
2022-10-17T11:28:40.343Z,24.94
2022-10-17T11:31:48.561Z,25.26
2022-10-17T11:34:57.442Z,25.73
2022-10-17T11:38:14.793Z,25.73
2022-10-17T11:41:22.041Z,24.58
2022-10-17T11:44:31.108Z,24.26
2022-10-17T11:47:45.417Z,24.59
2022-10-17T11:54:30.181Z,24.93
2022-10-17T11:57:53.747Z,24.41
2022-10-17T12:01:11.601Z,24.58
2022-10-17T12:04:27.491Z,24.52
2022-10-17T12:07:40.346Z,24.71
2022-10-17T12:10:50.326Z,24.97
2022-10-17T12:13:56.329Z,25.23
2022-10-17T12:17:01.716Z,24.83
2022-10-17T12:20:34.170Z,25.21
2022-10-17T12:23:39.006Z,24.93
2022-10-17T12:26:42.231Z,24.84
2022-10-17T12:29:45.441Z,24.54
2022-10-17T12:33:07.426Z,25.02
2022-10-17T12:36:49.895Z,25.16
2022-10-17T12:39:53.093Z,24.91
2022-10-17T12:42:56.330Z,25.02
2022-10-17T12:46:00.642Z,24.49
2022-10-17T12:49:22.861Z,24.44
2022-10-17T12:53:03.693Z,24.88
2022-10-17T12:56:07.748Z,24.69
2022-10-17T12:59:17.129Z,24.60
2022-10-17T13:02:23.368Z,24.71
2022-10-17T13:05:31.936Z,24.42
2022-10-17T13:08:39.089Z,24.65
2022-10-17T13:11:43.839Z,24.13
2022-10-17T13:14:49.194Z,23.68
2022-10-17T13:18:00.432Z,24.03
2022-10-17T13:21:07.468Z,24.13
2022-10-17T13:24:25.263Z,24.24
2022-10-17T13:27:30.124Z,24.37
2022-10-17T13:30:35.359Z,24.52
2022-10-17T13:33:40.179Z,24.58
2022-10-17T13:36:49.137Z,23.90
2022-10-17T13:39:55.340Z,23.92
2022-10-17T13:43:02.204Z,23.23
2022-10-17T13:46:25.416Z,23.20
2022-10-17T13:49:34.737Z,23.11
2022-10-17T13:52:39.516Z,23.43
2022-10-17T13:56:09.448Z,23.62
2022-10-17T13:59:24.047Z,23.08
2022-10-17T14:02:28.928Z,23.15
2022-10-17T14:05:32.141Z,23.43
2022-10-17T14:08:38.196Z,23.62
2022-10-17T14:11:43.059Z,23.67
2022-10-17T14:15:12.759Z,23.61
2022-10-17T14:18:21.855Z,23.50
2022-10-17T14:21:42.917Z,23.20
2022-10-17T14:24:49.188Z,23.33
2022-10-17T14:28:02.546Z,23.33
2022-10-17T14:31:33.654Z,23.34
2022-10-17T14:34:38.968Z,23.11
2022-10-17T14:37:44.947Z,22.97
2022-10-17T14:41:00.307Z,22.97
2022-10-17T14:44:16.766Z,22.64
2022-10-17T14:47:42.686Z,22.44
2022-10-17T14:51:07.906Z,22.26
2022-10-17T14:54:23.022Z,22.28
2022-10-17T14:57:41.962Z,21.94
2022-10-17T15:00:45.236Z,21.80
2022-10-17T15:03:48.448Z,21.73
2022-10-17T15:06:55.899Z,21.63
2022-10-17T15:09:59.120Z,21.60
2022-10-17T15:16:31.822Z,21.56
2022-10-17T15:19:35.008Z,21.09
2022-10-17T15:22:38.233Z,21.21
2022-10-17T15:25:41.484Z,21.21
2022-10-17T15:28:47.540Z,21.26
2022-10-17T15:31:50.843Z,21.17
2022-10-17T15:34:54.114Z,21.11
2022-10-17T15:37:57.607Z,21.10
2022-10-17T15:41:00.767Z,20.82
2022-10-17T15:44:05.561Z,20.84
2022-10-17T15:47:16.562Z,20.60
2022-10-17T15:50:20.250Z,20.69
2022-10-17T15:53:24.209Z,20.65
2022-10-17T15:56:30.310Z,20.60
2022-10-17T15:59:36.232Z,20.49
2022-10-17T16:02:39.403Z,20.49
2022-10-17T16:05:42.692Z,20.44
2022-10-17T16:08:45.981Z,20.46
2022-10-17T16:11:49.232Z,20.36
2022-10-17T16:14:53.867Z,20.29
2022-10-17T16:18:01.587Z,20.25
2022-10-17T16:21:07.551Z,20.10
2022-10-17T16:24:12.197Z,20.04
2022-10-17T16:27:15.417Z,19.96
2022-10-17T16:33:29.068Z,19.90
2022-10-17T16:36:32.244Z,19.80
2022-10-17T16:39:35.635Z,19.71
2022-10-17T16:42:38.871Z,19.59
2022-10-17T16:45:43.472Z,19.56
2022-10-17T16:48:47.535Z,19.51
2022-10-17T16:51:50.810Z,19.49
2022-10-17T16:54:54.003Z,19.51
2022-10-17T16:57:57.170Z,19.45
2022-10-17T17:01:03.706Z,19.31
2022-10-17T17:04:06.891Z,19.25
2022-10-17T17:07:10.109Z,19.26
2022-10-17T17:10:13.318Z,19.23
2022-10-17T17:13:16.583Z,19.19
2022-10-17T17:16:23.659Z,19.26
2022-10-17T17:19:26.912Z,19.24
2022-10-17T17:22:30.100Z,19.28
2022-10-17T17:25:35.802Z,19.29
2022-10-17T17:28:39.774Z,19.06
2022-10-17T17:31:44.528Z,19.10
2022-10-17T17:34:47.917Z,19.01
2022-10-17T17:37:53.846Z,18.92
2022-10-17T17:40:57.205Z,18.77
2022-10-17T17:44:01.546Z,18.62
2022-10-17T17:47:06.440Z,18.74
2022-10-17T17:50:10.158Z,18.51
2022-10-17T17:53:15.475Z,18.55
2022-10-17T17:56:20.232Z,18.57
2022-10-17T17:59:23.450Z,18.51
2022-10-17T18:02:28.369Z,18.38
2022-10-17T18:05:32.125Z,18.53
2022-10-17T18:08:35.790Z,18.31
2022-10-17T18:11:39.671Z,18.42
2022-10-17T18:14:42.823Z,18.49
2022-10-17T18:17:47.484Z,18.39
2022-10-17T18:20:50.703Z,18.15
2022-10-17T18:23:53.913Z,17.75
2022-10-17T18:26:59.938Z,17.83
2022-10-17T18:30:03.302Z,17.72
2022-10-17T18:33:07.851Z,17.28
2022-10-17T18:36:13.691Z,16.82
2022-10-17T18:39:16.842Z,17.38
2022-10-17T18:42:20.538Z,17.06
2022-10-17T18:45:23.772Z,17.22
2022-10-17T18:48:28.325Z,17.42
2022-10-17T18:51:31.642Z,17.59
2022-10-17T18:54:34.928Z,17.39
2022-10-17T18:57:38.099Z,17.15
2022-10-17T19:00:41.317Z,17.22
2022-10-17T19:03:47.432Z,17.27
2022-10-17T19:06:50.660Z,17.48
2022-10-17T19:09:53.972Z,17.47
2022-10-17T19:12:57.159Z,17.40
2022-10-17T19:16:00.390Z,17.43
2022-10-17T19:19:07.370Z,17.17
2022-10-17T19:22:10.531Z,17.33
2022-10-17T19:25:13.846Z,17.41
2022-10-17T19:28:17.064Z,17.43
2022-10-17T19:31:26.207Z,17.20
2022-10-17T19:34:31.529Z,16.92
2022-10-17T19:37:35.354Z,16.75
2022-10-17T19:40:41.903Z,16.81
2022-10-17T19:43:45.607Z,16.92
2022-10-17T19:46:49.397Z,16.96
2022-10-17T19:49:54.229Z,17.02
2022-10-17T19:52:57.732Z,16.83
2022-10-17T19:56:01.365Z,16.84
2022-10-17T19:59:05.240Z,17.04
2022-10-17T20:02:08.625Z,17.13
2022-10-17T20:05:18.453Z,17.04
2022-10-17T20:08:22.580Z,16.91
2022-10-17T20:11:27.421Z,16.79
2022-10-17T20:14:30.688Z,15.75
2022-10-17T20:20:39.406Z,16.03
2022-10-17T20:23:43.583Z,15.81
2022-10-17T20:26:47.067Z,15.69
2022-10-17T20:29:50.391Z,15.79
2022-10-17T20:32:56.524Z,15.65
2022-10-17T20:36:01.130Z,15.60
2022-10-17T20:39:05.033Z,15.97
2022-10-17T20:42:08.240Z,15.93
2022-10-17T20:45:12.346Z,16.12
2022-10-17T20:48:17.205Z,15.82
2022-10-17T20:51:22.657Z,15.85
2022-10-17T20:54:26.165Z,15.93
2022-10-17T20:57:29.621Z,15.96
2022-10-17T21:00:33.122Z,15.95
2022-10-17T21:03:39.795Z,15.65
2022-10-17T21:06:48.212Z,15.48
2022-10-17T21:09:51.579Z,15.56
2022-10-17T21:12:54.761Z,15.06
2022-10-17T21:16:06.002Z,15.51
2022-10-17T21:19:09.298Z,15.79
2022-10-17T21:22:13.903Z,15.60
2022-10-17T21:25:17.223Z,15.53
2022-10-17T21:28:20.394Z,15.51
2022-10-17T21:31:25.642Z,15.63
2022-10-17T21:34:28.931Z,15.89
2022-10-17T21:37:33.590Z,15.16
2022-10-17T21:40:36.761Z,15.65
2022-10-17T21:43:40.276Z,15.85
2022-10-17T21:46:44.288Z,15.86
2022-10-17T21:49:47.540Z,15.70
2022-10-17T21:52:52.145Z,15.57
2022-10-17T21:55:55.384Z,15.27
2022-10-17T21:58:59.827Z,15.16
2022-10-17T22:02:03.192Z,15.34
2022-10-17T22:05:07.020Z,15.40
2022-10-17T22:08:11.686Z,15.40
2022-10-17T22:11:21.586Z,15.13
2022-10-17T22:14:26.284Z,15.33
2022-10-17T22:17:29.643Z,15.19
2022-10-17T22:20:35.558Z,15.22
2022-10-17T22:23:40.371Z,15.22
2022-10-17T22:26:44.658Z,15.06
2022-10-17T22:29:47.937Z,14.67
2022-10-17T22:32:51.151Z,14.77
2022-10-17T22:35:54.556Z,14.33
2022-10-17T22:38:59.137Z,14.28
2022-10-17T22:42:02.305Z,13.53
2022-10-17T22:45:06.158Z,13.79
2022-10-17T22:48:10.384Z,13.94
2022-10-17T22:51:14.148Z,14.23
2022-10-17T22:54:18.992Z,14.57
2022-10-17T22:57:22.317Z,14.70
2022-10-17T23:00:25.497Z,14.69
2022-10-17T23:03:30.115Z,14.62
2022-10-17T23:06:33.389Z,14.70
2022-10-17T23:09:38.136Z,14.75
2022-10-17T23:12:41.447Z,14.76
2022-10-17T23:15:45.073Z,14.59
2022-10-17T23:18:48.276Z,14.23
2022-10-17T23:21:51.495Z,14.49
2022-10-17T23:24:56.121Z,14.32
2022-10-17T23:27:59.329Z,14.24
2022-10-17T23:31:10.698Z,14.42
2022-10-17T23:34:14.069Z,14.42
2022-10-17T23:37:17.292Z,14.30
2022-10-17T23:40:22.005Z,14.10
2022-10-17T23:43:26.615Z,13.66
2022-10-17T23:46:29.815Z,12.43
2022-10-17T23:49:33.052Z,12.97
2022-10-17T23:52:36.316Z,13.26
2022-10-17T23:55:40.940Z,13.45
2022-10-17T23:58:44.231Z,13.53
